sensor_id;sensor_type;location;lat;lon;timestamp;pressure;altitude;pressure_sealevel;temperature;humidity
30081;BME280;16902;50.816;12.828;2023-05-19T00:02:27;98619.56;;;8.80;100.00
30081;BME280;16902;50.816;12.828;2023-05-19T00:07:37;98616.97;;;8.80;100.00
30081;BME280;16902;50.816;12.828;2023-05-19T00:12:39;98617.78;;;8.81;100.00
30081;BME280;16902;50.816;12.828;2023-05-19T00:17:42;98623.41;;;8.76;100.00
30081;BME280;16902;50.816;12.828;2023-05-19T00:22:43;98607.31;;;8.72;100.00
30081;BME280;16902;50.816;12.828;2023-05-19T00:27:45;98601.75;;;8.67;100.00
30081;BME280;16902;50.816;12.828;2023-05-19T00:32:47;98604.34;;;8.67;100.00
30081;BME280;16902;50.816;12.828;2023-05-19T00:37:49;98593.81;;;8.69;100.00
30081;BME280;16902;50.816;12.828;2023-05-19T00:42:51;98593.97;;;8.67;100.00
30081;BME280;16902;50.816;12.828;2023-05-19T00:47:52;98591.00;;;8.62;100.00
30081;BME280;16902;50.816;12.828;2023-05-19T00:52:54;98587.22;;;8.57;100.00
30081;BME280;16902;50.816;12.828;2023-05-19T00:57:56;98584.72;;;8.55;100.00
30081;BME280;16902;50.816;12.828;2023-05-19T01:02:58;98582.44;;;8.52;100.00
30081;BME280;16902;50.816;12.828;2023-05-19T01:08:00;98581.75;;;8.50;100.00
30081;BME280;16902;50.816;12.828;2023-05-19T01:13:03;98583.41;;;8.51;100.00
30081;BME280;16902;50.816;12.828;2023-05-19T01:18:14;98577.97;;;8.44;100.00
30081;BME280;16902;50.816;12.828;2023-05-19T01:23:33;98581.91;;;8.48;100.00
30081;BME280;16902;50.816;12.828;2023-05-19T01:33:48;98584.78;;;8.45;100.00
30081;BME280;16902;50.816;12.828;2023-05-19T01:38:55;98583.69;;;8.48;100.00
30081;BME280;16902;50.816;12.828;2023-05-19T01:43:58;98580.94;;;8.49;100.00
30081;BME280;16902;50.816;12.828;2023-05-19T01:49:00;98583.53;;;8.49;100.00
30081;BME280;16902;50.816;12.828;2023-05-19T01:54:02;98588.88;;;8.48;100.00
30081;BME280;16902;50.816;12.828;2023-05-19T01:59:36;98580.88;;;8.41;100.00
30081;BME280;16902;50.816;12.828;2023-05-19T02:04:43;98579.22;;;8.40;100.00
30081;BME280;16902;50.816;12.828;2023-05-19T02:09:51;98579.53;;;8.37;100.00
30081;BME280;16902;50.816;12.828;2023-05-19T02:15:02;98583.19;;;8.35;100.00
30081;BME280;16902;50.816;12.828;2023-05-19T02:20:07;98574.50;;;8.26;100.00
30081;BME280;16902;50.816;12.828;2023-05-19T02:25:12;98571.78;;;8.28;100.00
30081;BME280;16902;50.816;12.828;2023-05-19T02:30:14;98573.59;;;8.17;100.00
30081;BME280;16902;50.816;12.828;2023-05-19T02:35:16;98572.09;;;8.15;100.00
30081;BME280;16902;50.816;12.828;2023-05-19T02:40:18;98565.44;;;8.12;100.00
30081;BME280;16902;50.816;12.828;2023-05-19T02:45:20;98560.16;;;8.04;100.00
30081;BME280;16902;50.816;12.828;2023-05-19T02:50:21;98551.06;;;7.90;100.00
30081;BME280;16902;50.816;12.828;2023-05-19T02:55:23;98553.88;;;7.69;100.00
30081;BME280;16902;50.816;12.828;2023-05-19T03:00:25;98562.66;;;7.49;100.00
30081;BME280;16902;50.816;12.828;2023-05-19T03:05:27;98557.78;;;7.36;100.00
30081;BME280;16902;50.816;12.828;2023-05-19T03:10:30;98556.56;;;7.31;100.00
30081;BME280;16902;50.816;12.828;2023-05-19T03:15:32;98553.84;;;7.32;100.00
30081;BME280;16902;50.816;12.828;2023-05-19T03:20:34;98552.75;;;7.25;100.00
30081;BME280;16902;50.816;12.828;2023-05-19T03:25:36;98552.34;;;7.10;100.00
30081;BME280;16902;50.816;12.828;2023-05-19T03:30:38;98548.97;;;6.90;100.00
30081;BME280;16902;50.816;12.828;2023-05-19T03:35:52;98545.44;;;6.72;100.00
30081;BME280;16902;50.816;12.828;2023-05-19T03:40:54;98552.66;;;6.59;100.00
30081;BME280;16902;50.816;12.828;2023-05-19T03:45:56;98554.81;;;6.54;100.00
30081;BME280;16902;50.816;12.828;2023-05-19T03:51:17;98554.84;;;6.63;100.00
30081;BME280;16902;50.816;12.828;2023-05-19T03:56:20;98551.16;;;6.66;100.00
30081;BME280;16902;50.816;12.828;2023-05-19T04:01:25;98553.31;;;6.70;100.00
30081;BME280;16902;50.816;12.828;2023-05-19T04:06:27;98551.97;;;6.76;100.00
30081;BME280;16902;50.816;12.828;2023-05-19T04:11:29;98553.72;;;6.85;100.00
30081;BME280;16902;50.816;12.828;2023-05-19T04:16:31;98553.88;;;6.84;100.00
30081;BME280;16902;50.816;12.828;2023-05-19T04:21:34;98556.47;;;6.93;100.00
30081;BME280;16902;50.816;12.828;2023-05-19T04:26:35;98556.47;;;7.03;100.00
30081;BME280;16902;50.816;12.828;2023-05-19T04:31:39;98556.59;;;7.21;100.00
30081;BME280;16902;50.816;12.828;2023-05-19T04:36:41;98570.00;;;7.54;100.00
30081;BME280;16902;50.816;12.828;2023-05-19T04:41:44;98567.19;;;7.84;100.00
30081;BME280;16902;50.816;12.828;2023-05-19T04:46:47;98574.84;;;8.13;100.00
30081;BME280;16902;50.816;12.828;2023-05-19T04:51:49;98574.00;;;8.22;100.00
30081;BME280;16902;50.816;12.828;2023-05-19T04:57:00;98577.69;;;8.47;100.00
30081;BME280;16902;50.816;12.828;2023-05-19T05:02:04;98573.22;;;8.85;100.00
30081;BME280;16902;50.816;12.828;2023-05-19T05:07:06;98562.06;;;9.37;100.00
30081;BME280;16902;50.816;12.828;2023-05-19T05:12:09;98572.69;;;9.43;100.00
30081;BME280;16902;50.816;12.828;2023-05-19T05:17:13;98574.22;;;9.54;100.00
30081;BME280;16902;50.816;12.828;2023-05-19T05:22:16;98565.41;;;9.81;100.00
30081;BME280;16902;50.816;12.828;2023-05-19T05:27:18;98571.03;;;9.94;100.00
30081;BME280;16902;50.816;12.828;2023-05-19T05:32:20;98559.91;;;10.18;100.00
30081;BME280;16902;50.816;12.828;2023-05-19T05:37:22;98566.16;;;10.25;100.00
30081;BME280;16902;50.816;12.828;2023-05-19T05:42:23;98574.03;;;10.50;100.00
30081;BME280;16902;50.816;12.828;2023-05-19T05:47:27;98576.28;;;10.53;100.00
30081;BME280;16902;50.816;12.828;2023-05-19T05:52:29;98582.19;;;10.71;100.00
30081;BME280;16902;50.816;12.828;2023-05-19T05:57:34;98578.66;;;10.97;100.00
30081;BME280;16902;50.816;12.828;2023-05-19T06:02:38;98582.56;;;11.25;100.00
30081;BME280;16902;50.816;12.828;2023-05-19T06:07:40;98582.22;;;11.53;100.00
30081;BME280;16902;50.816;12.828;2023-05-19T06:12:44;98577.19;;;11.43;100.00
30081;BME280;16902;50.816;12.828;2023-05-19T06:17:46;98579.28;;;11.48;100.00
30081;BME280;16902;50.816;12.828;2023-05-19T06:22:47;98576.00;;;11.62;100.00
30081;BME280;16902;50.816;12.828;2023-05-19T06:27:52;98574.66;;;11.91;100.00
30081;BME280;16902;50.816;12.828;2023-05-19T06:32:55;98578.41;;;11.88;100.00
30081;BME280;16902;50.816;12.828;2023-05-19T06:37:58;98578.75;;;11.77;100.00
30081;BME280;16902;50.816;12.828;2023-05-19T06:43:00;98574.97;;;11.79;100.00
30081;BME280;16902;50.816;12.828;2023-05-19T06:48:14;98576.63;;;12.28;100.00
30081;BME280;16902;50.816;12.828;2023-05-19T06:53:18;98574.44;;;12.08;100.00
30081;BME280;16902;50.816;12.828;2023-05-19T06:58:21;98565.53;;;12.34;100.00
30081;BME280;16902;50.816;12.828;2023-05-19T07:03:23;98573.09;;;12.21;100.00
30081;BME280;16902;50.816;12.828;2023-05-19T07:08:25;98566.00;;;11.98;100.00
30081;BME280;16902;50.816;12.828;2023-05-19T07:13:29;98573.22;;;11.80;100.00
30081;BME280;16902;50.816;12.828;2023-05-19T07:18:31;98560.75;;;12.38;100.00
30081;BME280;16902;50.816;12.828;2023-05-19T07:23:33;98575.88;;;12.50;100.00
30081;BME280;16902;50.816;12.828;2023-05-19T07:28:35;98558.81;;;13.08;100.00
30081;BME280;16902;50.816;12.828;2023-05-19T07:33:39;98565.00;;;13.68;100.00
30081;BME280;16902;50.816;12.828;2023-05-19T07:38:41;98559.19;;;13.05;100.00
30081;BME280;16902;50.816;12.828;2023-05-19T07:43:43;98550.69;;;13.03;100.00
30081;BME280;16902;50.816;12.828;2023-05-19T07:48:45;98550.22;;;13.90;100.00
30081;BME280;16902;50.816;12.828;2023-05-19T07:53:46;98541.31;;;14.21;100.00
30081;BME280;16902;50.816;12.828;2023-05-19T07:58:48;98552.91;;;13.97;100.00
30081;BME280;16902;50.816;12.828;2023-05-19T08:03:50;98546.59;;;13.91;100.00
30081;BME280;16902;50.816;12.828;2023-05-19T08:08:52;98541.78;;;14.24;100.00
30081;BME280;16902;50.816;12.828;2023-05-19T08:13:54;98545.72;;;14.50;100.00
30081;BME280;16902;50.816;12.828;2023-05-19T08:18:56;98543.94;;;14.21;100.00
30081;BME280;16902;50.816;12.828;2023-05-19T08:23:58;98537.84;;;13.99;100.00
30081;BME280;16902;50.816;12.828;2023-05-19T08:28:59;98550.09;;;14.28;100.00
30081;BME280;16902;50.816;12.828;2023-05-19T08:34:01;98540.91;;;13.87;100.00
30081;BME280;16902;50.816;12.828;2023-05-19T08:39:03;98542.13;;;14.36;100.00
30081;BME280;16902;50.816;12.828;2023-05-19T08:44:05;98531.63;;;14.00;100.00
30081;BME280;16902;50.816;12.828;2023-05-19T08:49:10;98529.88;;;14.07;100.00
30081;BME280;16902;50.816;12.828;2023-05-19T08:54:14;98536.03;;;14.65;100.00
30081;BME280;16902;50.816;12.828;2023-05-19T08:59:17;98523.84;;;14.57;100.00
30081;BME280;16902;50.816;12.828;2023-05-19T09:04:19;98515.88;;;14.65;100.00
30081;BME280;16902;50.816;12.828;2023-05-19T09:09:21;98514.47;;;15.75;100.00
30081;BME280;16902;50.816;12.828;2023-05-19T09:14:23;98510.66;;;15.50;100.00
30081;BME280;16902;50.816;12.828;2023-05-19T09:19:27;98500.06;;;15.08;100.00
30081;BME280;16902;50.816;12.828;2023-05-19T09:24:29;98494.50;;;15.46;100.00
30081;BME280;16902;50.816;12.828;2023-05-19T09:29:32;98490.81;;;15.68;100.00
30081;BME280;16902;50.816;12.828;2023-05-19T09:34:33;98487.38;;;15.68;100.00
30081;BME280;16902;50.816;12.828;2023-05-19T09:39:40;98491.50;;;15.21;100.00
30081;BME280;16902;50.816;12.828;2023-05-19T09:44:42;98487.59;;;15.10;100.00
30081;BME280;16902;50.816;12.828;2023-05-19T09:49:47;98487.06;;;15.22;100.00
30081;BME280;16902;50.816;12.828;2023-05-19T09:54:49;98481.66;;;15.99;100.00
30081;BME280;16902;50.816;12.828;2023-05-19T09:59:53;98482.44;;;16.61;100.00
30081;BME280;16902;50.816;12.828;2023-05-19T10:04:57;98484.25;;;17.40;100.00
30081;BME280;16902;50.816;12.828;2023-05-19T10:09:59;98465.09;;;16.73;100.00
30081;BME280;16902;50.816;12.828;2023-05-19T10:15:01;98462.94;;;16.22;100.00
30081;BME280;16902;50.816;12.828;2023-05-19T10:20:04;98456.38;;;16.86;100.00
30081;BME280;16902;50.816;12.828;2023-05-19T10:25:08;98453.53;;;16.87;100.00
30081;BME280;16902;50.816;12.828;2023-05-19T10:30:43;98440.75;;;16.51;100.00
30081;BME280;16902;50.816;12.828;2023-05-19T10:41:26;98445.44;;;16.69;100.00
30081;BME280;16902;50.816;12.828;2023-05-19T10:46:29;98429.97;;;17.52;100.00
30081;BME280;16902;50.816;12.828;2023-05-19T10:51:31;98435.78;;;18.12;100.00
30081;BME280;16902;50.816;12.828;2023-05-19T10:56:38;98429.69;;;17.80;100.00
30081;BME280;16902;50.816;12.828;2023-05-19T11:01:42;98432.16;;;17.62;100.00
30081;BME280;16902;50.816;12.828;2023-05-19T11:06:50;98441.66;;;17.76;100.00
30081;BME280;16902;50.816;12.828;2023-05-19T11:11:53;98431.94;;;20.78;100.00
30081;BME280;16902;50.816;12.828;2023-05-19T11:16:56;98435.84;;;20.52;100.00
30081;BME280;16902;50.816;12.828;2023-05-19T11:22:11;98424.25;;;19.93;100.00
30081;BME280;16902;50.816;12.828;2023-05-19T11:27:30;98422.84;;;21.57;100.00
30081;BME280;16902;50.816;12.828;2023-05-19T11:32:34;98422.31;;;22.40;100.00
30081;BME280;16902;50.816;12.828;2023-05-19T11:37:39;98417.50;;;21.68;100.00
30081;BME280;16902;50.816;12.828;2023-05-19T11:42:43;98398.00;;;20.64;100.00
30081;BME280;16902;50.816;12.828;2023-05-19T11:47:46;98411.13;;;20.70;100.00
30081;BME280;16902;50.816;12.828;2023-05-19T11:53:02;98402.41;;;21.05;100.00
30081;BME280;16902;50.816;12.828;2023-05-19T11:58:05;98407.81;;;20.75;100.00
30081;BME280;16902;50.816;12.828;2023-05-19T12:03:07;98424.75;;;21.33;100.00
30081;BME280;16902;50.816;12.828;2023-05-19T12:08:13;98417.31;;;21.58;100.00
30081;BME280;16902;50.816;12.828;2023-05-19T12:13:14;98417.97;;;22.51;99.15
30081;BME280;16902;50.816;12.828;2023-05-19T12:18:16;98412.28;;;21.10;100.00
30081;BME280;16902;50.816;12.828;2023-05-19T12:23:19;98414.41;;;22.28;100.00
30081;BME280;16902;50.816;12.828;2023-05-19T12:28:21;98409.91;;;24.55;90.03
30081;BME280;16902;50.816;12.828;2023-05-19T12:33:23;98418.72;;;24.28;79.52
30081;BME280;16902;50.816;12.828;2023-05-19T12:38:25;98409.88;;;24.23;76.12
30081;BME280;16902;50.816;12.828;2023-05-19T12:43:27;98401.63;;;22.76;80.79
30081;BME280;16902;50.816;12.828;2023-05-19T12:48:29;98403.16;;;24.79;75.09
30081;BME280;16902;50.816;12.828;2023-05-19T12:53:31;98409.69;;;24.56;65.58
30081;BME280;16902;50.816;12.828;2023-05-19T12:58:33;98403.00;;;26.93;61.84
30081;BME280;16902;50.816;12.828;2023-05-19T13:03:39;98395.16;;;25.74;61.77
30081;BME280;16902;50.816;12.828;2023-05-19T13:08:45;98393.59;;;24.78;65.42
30081;BME280;16902;50.816;12.828;2023-05-19T13:13:47;98403.31;;;25.00;66.25
30081;BME280;16902;50.816;12.828;2023-05-19T13:18:49;98400.91;;;26.54;57.00
30081;BME280;16902;50.816;12.828;2023-05-19T13:23:51;98388.59;;;26.28;64.28
30081;BME280;16902;50.816;12.828;2023-05-19T13:28:53;98388.34;;;23.09;89.89
30081;BME280;16902;50.816;12.828;2023-05-19T13:33:55;98377.91;;;26.18;59.36
30081;BME280;16902;50.816;12.828;2023-05-19T13:38:57;98378.75;;;23.69;69.69
30081;BME280;16902;50.816;12.828;2023-05-19T13:43:59;98378.03;;;24.65;70.46
30081;BME280;16902;50.816;12.828;2023-05-19T13:49:01;98384.84;;;26.19;57.77
30081;BME280;16902;50.816;12.828;2023-05-19T13:54:03;98379.16;;;24.10;67.44
30081;BME280;16902;50.816;12.828;2023-05-19T13:59:05;98373.88;;;24.15;73.16
30081;BME280;16902;50.816;12.828;2023-05-19T14:04:09;98375.25;;;23.03;80.99
30081;BME280;16902;50.816;12.828;2023-05-19T14:09:14;98369.22;;;22.23;84.00
30081;BME280;16902;50.816;12.828;2023-05-19T14:14:16;98372.38;;;21.51;96.40
30081;BME280;16902;50.816;12.828;2023-05-19T14:19:18;98364.16;;;21.13;96.58
30081;BME280;16902;50.816;12.828;2023-05-19T14:24:19;98365.66;;;20.97;100.00
30081;BME280;16902;50.816;12.828;2023-05-19T14:29:21;98362.03;;;19.24;100.00
30081;BME280;16902;50.816;12.828;2023-05-19T14:34:23;98370.03;;;17.92;100.00
30081;BME280;16902;50.816;12.828;2023-05-19T14:39:25;98370.44;;;17.96;100.00
30081;BME280;16902;50.816;12.828;2023-05-19T14:44:30;98376.75;;;17.30;100.00
30081;BME280;16902;50.816;12.828;2023-05-19T14:49:33;98376.81;;;17.17;100.00
30081;BME280;16902;50.816;12.828;2023-05-19T14:54:35;98375.25;;;17.54;100.00
30081;BME280;16902;50.816;12.828;2023-05-19T14:59:37;98373.78;;;17.13;100.00
30081;BME280;16902;50.816;12.828;2023-05-19T15:04:39;98381.72;;;16.87;100.00
30081;BME280;16902;50.816;12.828;2023-05-19T15:09:40;98391.03;;;16.76;100.00
30081;BME280;16902;50.816;12.828;2023-05-19T15:14:42;98395.06;;;16.99;100.00
30081;BME280;16902;50.816;12.828;2023-05-19T15:19:44;98387.25;;;17.43;100.00
30081;BME280;16902;50.816;12.828;2023-05-19T15:24:46;98384.97;;;16.56;100.00
30081;BME280;16902;50.816;12.828;2023-05-19T15:29:47;98395.88;;;16.53;100.00
30081;BME280;16902;50.816;12.828;2023-05-19T15:34:49;98395.41;;;16.03;100.00
30081;BME280;16902;50.816;12.828;2023-05-19T15:39:51;98387.69;;;15.94;100.00
30081;BME280;16902;50.816;12.828;2023-05-19T15:44:52;98395.06;;;16.52;100.00
30081;BME280;16902;50.816;12.828;2023-05-19T15:49:54;98402.56;;;16.68;100.00
30081;BME280;16902;50.816;12.828;2023-05-19T15:54:56;98397.84;;;17.24;100.00
30081;BME280;16902;50.816;12.828;2023-05-19T15:59:59;98388.53;;;17.79;100.00
30081;BME280;16902;50.816;12.828;2023-05-19T16:05:01;98385.94;;;17.14;100.00
30081;BME280;16902;50.816;12.828;2023-05-19T16:10:23;98394.06;;;16.93;100.00
30081;BME280;16902;50.816;12.828;2023-05-19T16:15:24;98382.13;;;16.31;100.00
30081;BME280;16902;50.816;12.828;2023-05-19T16:20:26;98387.38;;;16.57;100.00
30081;BME280;16902;50.816;12.828;2023-05-19T16:25:30;98386.81;;;16.75;100.00
30081;BME280;16902;50.816;12.828;2023-05-19T16:30:32;98382.94;;;16.84;100.00
30081;BME280;16902;50.816;12.828;2023-05-19T16:35:34;98391.56;;;15.92;100.00
30081;BME280;16902;50.816;12.828;2023-05-19T16:40:36;98385.25;;;15.80;100.00
30081;BME280;16902;50.816;12.828;2023-05-19T16:45:38;98381.97;;;15.64;100.00
30081;BME280;16902;50.816;12.828;2023-05-19T16:50:40;98381.84;;;15.86;100.00
30081;BME280;16902;50.816;12.828;2023-05-19T16:55:42;98382.22;;;15.83;100.00
30081;BME280;16902;50.816;12.828;2023-05-19T17:00:43;98377.19;;;15.88;100.00
30081;BME280;16902;50.816;12.828;2023-05-19T17:05:45;98371.50;;;15.78;100.00
30081;BME280;16902;50.816;12.828;2023-05-19T17:10:47;98378.63;;;15.42;100.00
30081;BME280;16902;50.816;12.828;2023-05-19T17:15:50;98390.75;;;15.09;100.00
30081;BME280;16902;50.816;12.828;2023-05-19T17:20:53;98391.13;;;15.06;100.00
30081;BME280;16902;50.816;12.828;2023-05-19T17:25:57;98381.66;;;15.05;100.00
30081;BME280;16902;50.816;12.828;2023-05-19T17:30:58;98390.38;;;14.84;100.00
30081;BME280;16902;50.816;12.828;2023-05-19T17:36:02;98391.19;;;14.56;100.00
30081;BME280;16902;50.816;12.828;2023-05-19T17:41:03;98389.00;;;14.38;100.00
30081;BME280;16902;50.816;12.828;2023-05-19T17:46:10;98402.53;;;14.21;100.00
30081;BME280;16902;50.816;12.828;2023-05-19T17:51:12;98399.34;;;14.04;100.00
30081;BME280;16902;50.816;12.828;2023-05-19T17:56:14;98398.44;;;13.97;100.00
30081;BME280;16902;50.816;12.828;2023-05-19T18:01:16;98403.19;;;13.86;100.00
30081;BME280;16902;50.816;12.828;2023-05-19T18:06:19;98412.06;;;13.71;100.00
30081;BME280;16902;50.816;12.828;2023-05-19T18:11:21;98413.09;;;13.55;100.00
30081;BME280;16902;50.816;12.828;2023-05-19T18:16:23;98417.53;;;13.40;100.00
30081;BME280;16902;50.816;12.828;2023-05-19T18:21:26;98407.69;;;13.27;100.00
30081;BME280;16902;50.816;12.828;2023-05-19T18:26:27;98407.75;;;13.19;100.00
30081;BME280;16902;50.816;12.828;2023-05-19T18:31:29;98406.66;;;13.13;100.00
30081;BME280;16902;50.816;12.828;2023-05-19T18:36:31;98400.34;;;13.07;100.00
30081;BME280;16902;50.816;12.828;2023-05-19T18:41:33;98407.94;;;13.02;100.00
30081;BME280;16902;50.816;12.828;2023-05-19T18:46:34;98408.00;;;12.94;100.00
30081;BME280;16902;50.816;12.828;2023-05-19T18:51:36;98420.31;;;12.85;100.00
30081;BME280;16902;50.816;12.828;2023-05-19T18:56:38;98422.50;;;12.82;100.00
30081;BME280;16902;50.816;12.828;2023-05-19T19:01:39;98418.44;;;12.79;100.00
30081;BME280;16902;50.816;12.828;2023-05-19T19:06:42;98416.16;;;12.76;100.00
30081;BME280;16902;50.816;12.828;2023-05-19T19:11:44;98421.63;;;12.67;100.00
30081;BME280;16902;50.816;12.828;2023-05-19T19:16:46;98420.53;;;12.61;100.00
30081;BME280;16902;50.816;12.828;2023-05-19T19:21:48;98427.47;;;12.54;100.00
30081;BME280;16902;50.816;12.828;2023-05-19T19:26:49;98435.56;;;12.44;100.00
30081;BME280;16902;50.816;12.828;2023-05-19T19:31:51;98437.69;;;12.41;100.00
30081;BME280;16902;50.816;12.828;2023-05-19T19:36:53;98442.28;;;12.39;100.00
30081;BME280;16902;50.816;12.828;2023-05-19T19:41:55;98436.31;;;12.30;100.00
30081;BME280;16902;50.816;12.828;2023-05-19T19:46:57;98435.72;;;12.20;100.00
30081;BME280;16902;50.816;12.828;2023-05-19T19:52:00;98424.63;;;12.18;100.00
30081;BME280;16902;50.816;12.828;2023-05-19T19:57:02;98443.94;;;12.08;100.00
30081;BME280;16902;50.816;12.828;2023-05-19T20:02:04;98431.88;;;12.07;100.00
30081;BME280;16902;50.816;12.828;2023-05-19T20:07:06;98433.03;;;12.05;100.00
30081;BME280;16902;50.816;12.828;2023-05-19T20:12:08;98440.38;;;12.01;100.00
30081;BME280;16902;50.816;12.828;2023-05-19T20:17:09;98443.03;;;11.93;100.00
30081;BME280;16902;50.816;12.828;2023-05-19T20:22:11;98445.81;;;11.92;100.00
30081;BME280;16902;50.816;12.828;2023-05-19T20:27:13;98448.25;;;11.93;100.00
30081;BME280;16902;50.816;12.828;2023-05-19T20:32:14;98445.53;;;11.87;100.00
30081;BME280;16902;50.816;12.828;2023-05-19T20:37:16;98443.09;;;11.85;100.00
30081;BME280;16902;50.816;12.828;2023-05-19T20:42:18;98445.72;;;11.85;100.00
30081;BME280;16902;50.816;12.828;2023-05-19T20:47:19;98442.44;;;11.83;100.00
30081;BME280;16902;50.816;12.828;2023-05-19T20:52:21;98438.69;;;11.77;100.00
30081;BME280;16902;50.816;12.828;2023-05-19T20:57:23;98433.19;;;11.72;100.00
30081;BME280;16902;50.816;12.828;2023-05-19T21:02:28;98430.59;;;11.64;100.00
30081;BME280;16902;50.816;12.828;2023-05-19T21:07:30;98432.06;;;11.67;100.00
30081;BME280;16902;50.816;12.828;2023-05-19T21:12:32;98437.59;;;11.64;100.00
30081;BME280;16902;50.816;12.828;2023-05-19T21:17:34;98426.53;;;11.62;100.00
30081;BME280;16902;50.816;12.828;2023-05-19T21:22:36;98434.41;;;11.53;100.00
30081;BME280;16902;50.816;12.828;2023-05-19T21:27:38;98433.75;;;11.51;100.00
30081;BME280;16902;50.816;12.828;2023-05-19T21:32:41;98434.09;;;11.48;100.00
30081;BME280;16902;50.816;12.828;2023-05-19T21:37:42;98431.81;;;11.45;100.00
30081;BME280;16902;50.816;12.828;2023-05-19T21:42:44;98425.16;;;11.43;100.00
30081;BME280;16902;50.816;12.828;2023-05-19T21:47:46;98421.72;;;11.42;100.00
30081;BME280;16902;50.816;12.828;2023-05-19T21:52:48;98428.25;;;11.38;100.00
30081;BME280;16902;50.816;12.828;2023-05-19T21:57:49;98425.16;;;11.35;100.00
30081;BME280;16902;50.816;12.828;2023-05-19T22:02:51;98432.19;;;11.34;100.00
30081;BME280;16902;50.816;12.828;2023-05-19T22:07:53;98432.19;;;11.34;100.00
30081;BME280;16902;50.816;12.828;2023-05-19T22:12:55;98438.56;;;11.31;100.00
30081;BME280;16902;50.816;12.828;2023-05-19T22:17:57;98432.69;;;11.29;100.00
30081;BME280;16902;50.816;12.828;2023-05-19T22:22:59;98425.03;;;11.28;100.00
30081;BME280;16902;50.816;12.828;2023-05-19T22:28:01;98424.72;;;11.23;100.00
30081;BME280;16902;50.816;12.828;2023-05-19T22:33:03;98430.09;;;11.21;100.00
30081;BME280;16902;50.816;12.828;2023-05-19T22:38:05;98426.53;;;11.22;100.00
30081;BME280;16902;50.816;12.828;2023-05-19T22:43:10;98427.84;;;11.18;100.00
30081;BME280;16902;50.816;12.828;2023-05-19T22:48:12;98430.75;;;11.15;100.00
30081;BME280;16902;50.816;12.828;2023-05-19T22:53:15;98439.75;;;11.13;100.00
30081;BME280;16902;50.816;12.828;2023-05-19T22:58:17;98442.50;;;11.11;100.00
30081;BME280;16902;50.816;12.828;2023-05-19T23:03:18;98438.59;;;11.07;100.00
30081;BME280;16902;50.816;12.828;2023-05-19T23:08:20;98433.56;;;11.05;100.00
30081;BME280;16902;50.816;12.828;2023-05-19T23:13:22;98435.53;;;11.03;100.00
30081;BME280;16902;50.816;12.828;2023-05-19T23:18:23;98446.75;;;10.96;100.00
30081;BME280;16902;50.816;12.828;2023-05-19T23:23:25;98444.00;;;10.89;100.00
30081;BME280;16902;50.816;12.828;2023-05-19T23:28:29;98429.34;;;10.88;100.00
30081;BME280;16902;50.816;12.828;2023-05-19T23:33:31;98427.72;;;10.87;100.00
30081;BME280;16902;50.816;12.828;2023-05-19T23:38:33;98428.53;;;10.88;100.00
30081;BME280;16902;50.816;12.828;2023-05-19T23:43:35;98418.75;;;10.90;100.00
30081;BME280;16902;50.816;12.828;2023-05-19T23:48:38;98420.72;;;10.88;100.00
30081;BME280;16902;50.816;12.828;2023-05-19T23:53:40;98416.84;;;10.84;100.00
30081;BME280;16902;50.816;12.828;2023-05-19T23:58:41;98425.28;;;10.77;100.00
